sensor_id;sensor_type;location;lat;lon;timestamp;P1;durP1;ratioP1;P2;durP2;ratioP2
12445;SDS011;6287;50.984;7.022;2023-07-09T00:01:25;5.63;;;4.13;;
12445;SDS011;6287;50.984;7.022;2023-07-09T00:03:51;6.43;;;4.18;;
12445;SDS011;6287;50.984;7.022;2023-07-09T00:06:19;5.47;;;4.03;;
12445;SDS011;6287;50.984;7.022;2023-07-09T00:08:45;7.13;;;4.22;;
12445;SDS011;6287;50.984;7.022;2023-07-09T00:11:13;5.57;;;3.75;;
12445;SDS011;6287;50.984;7.022;2023-07-09T00:13:39;5.35;;;4.22;;
12445;SDS011;6287;50.984;7.022;2023-07-09T00:16:10;5.93;;;4.25;;
12445;SDS011;6287;50.984;7.022;2023-07-09T00:18:43;5.40;;;4.10;;
12445;SDS011;6287;50.984;7.022;2023-07-09T00:21:13;5.75;;;3.85;;
12445;SDS011;6287;50.984;7.022;2023-07-09T00:23:40;5.20;;;4.00;;
12445;SDS011;6287;50.984;7.022;2023-07-09T00:26:10;4.90;;;4.03;;
12445;SDS011;6287;50.984;7.022;2023-07-09T00:28:40;4.93;;;3.75;;
12445;SDS011;6287;50.984;7.022;2023-07-09T00:31:15;5.38;;;4.15;;
12445;SDS011;6287;50.984;7.022;2023-07-09T00:33:43;5.90;;;4.13;;
12445;SDS011;6287;50.984;7.022;2023-07-09T00:36:20;5.60;;;4.20;;
12445;SDS011;6287;50.984;7.022;2023-07-09T00:38:54;6.20;;;4.50;;
12445;SDS011;6287;50.984;7.022;2023-07-09T00:41:25;5.90;;;4.03;;
12445;SDS011;6287;50.984;7.022;2023-07-09T00:43:53;7.00;;;4.20;;
12445;SDS011;6287;50.984;7.022;2023-07-09T00:48:48;5.80;;;4.07;;
12445;SDS011;6287;50.984;7.022;2023-07-09T00:51:25;4.93;;;4.03;;
12445;SDS011;6287;50.984;7.022;2023-07-09T00:53:57;5.72;;;3.78;;
12445;SDS011;6287;50.984;7.022;2023-07-09T00:56:38;8.20;;;3.80;;
12445;SDS011;6287;50.984;7.022;2023-07-09T00:59:10;5.15;;;4.10;;
12445;SDS011;6287;50.984;7.022;2023-07-09T01:01:40;5.03;;;3.72;;
12445;SDS011;6287;50.984;7.022;2023-07-09T01:04:11;6.03;;;4.07;;
12445;SDS011;6287;50.984;7.022;2023-07-09T01:06:44;4.30;;;3.83;;
12445;SDS011;6287;50.984;7.022;2023-07-09T01:09:15;6.18;;;4.15;;
12445;SDS011;6287;50.984;7.022;2023-07-09T01:11:41;5.72;;;3.90;;
12445;SDS011;6287;50.984;7.022;2023-07-09T01:14:10;6.18;;;4.30;;
12445;SDS011;6287;50.984;7.022;2023-07-09T01:16:45;5.28;;;3.90;;
12445;SDS011;6287;50.984;7.022;2023-07-09T01:19:14;6.13;;;3.72;;
12445;SDS011;6287;50.984;7.022;2023-07-09T01:21:43;4.45;;;3.70;;
12445;SDS011;6287;50.984;7.022;2023-07-09T01:24:14;4.45;;;3.67;;
12445;SDS011;6287;50.984;7.022;2023-07-09T01:26:47;4.47;;;3.70;;
12445;SDS011;6287;50.984;7.022;2023-07-09T01:29:12;5.18;;;3.95;;
12445;SDS011;6287;50.984;7.022;2023-07-09T01:31:43;5.30;;;3.58;;
12445;SDS011;6287;50.984;7.022;2023-07-09T01:34:19;4.63;;;3.70;;
12445;SDS011;6287;50.984;7.022;2023-07-09T01:36:46;4.65;;;3.97;;
12445;SDS011;6287;50.984;7.022;2023-07-09T01:39:14;5.50;;;4.18;;
12445;SDS011;6287;50.984;7.022;2023-07-09T01:41:40;5.53;;;4.05;;
12445;SDS011;6287;50.984;7.022;2023-07-09T01:44:06;4.70;;;3.72;;
12445;SDS011;6287;50.984;7.022;2023-07-09T01:46:34;6.38;;;3.70;;
12445;SDS011;6287;50.984;7.022;2023-07-09T01:49:04;5.20;;;4.05;;
12445;SDS011;6287;50.984;7.022;2023-07-09T01:51:32;4.47;;;3.45;;
12445;SDS011;6287;50.984;7.022;2023-07-09T01:53:58;4.38;;;3.60;;
12445;SDS011;6287;50.984;7.022;2023-07-09T01:56:24;4.57;;;3.72;;
12445;SDS011;6287;50.984;7.022;2023-07-09T01:58:55;5.63;;;3.80;;
12445;SDS011;6287;50.984;7.022;2023-07-09T02:01:26;5.13;;;3.55;;
12445;SDS011;6287;50.984;7.022;2023-07-09T02:04:01;4.72;;;3.75;;
12445;SDS011;6287;50.984;7.022;2023-07-09T02:06:29;5.78;;;4.03;;
12445;SDS011;6287;50.984;7.022;2023-07-09T02:08:59;5.60;;;3.97;;
12445;SDS011;6287;50.984;7.022;2023-07-09T02:11:27;4.43;;;3.45;;
12445;SDS011;6287;50.984;7.022;2023-07-09T02:13:54;7.53;;;3.67;;
12445;SDS011;6287;50.984;7.022;2023-07-09T02:16:20;5.53;;;4.00;;
12445;SDS011;6287;50.984;7.022;2023-07-09T02:18:50;3.85;;;3.33;;
12445;SDS011;6287;50.984;7.022;2023-07-09T02:21:18;5.20;;;3.72;;
12445;SDS011;6287;50.984;7.022;2023-07-09T02:23:46;5.28;;;3.38;;
12445;SDS011;6287;50.984;7.022;2023-07-09T02:26:17;6.47;;;3.83;;
12445;SDS011;6287;50.984;7.022;2023-07-09T02:28:45;4.38;;;3.72;;
12445;SDS011;6287;50.984;7.022;2023-07-09T02:31:10;7.82;;;3.70;;
12445;SDS011;6287;50.984;7.022;2023-07-09T02:33:36;5.70;;;3.78;;
12445;SDS011;6287;50.984;7.022;2023-07-09T02:36:02;3.88;;;3.30;;
12445;SDS011;6287;50.984;7.022;2023-07-09T02:38:27;5.43;;;3.38;;
12445;SDS011;6287;50.984;7.022;2023-07-09T02:40:53;5.05;;;3.67;;
12445;SDS011;6287;50.984;7.022;2023-07-09T02:43:18;5.38;;;4.10;;
12445;SDS011;6287;50.984;7.022;2023-07-09T02:45:44;4.80;;;3.63;;
12445;SDS011;6287;50.984;7.022;2023-07-09T02:48:09;5.53;;;3.72;;
12445;SDS011;6287;50.984;7.022;2023-07-09T02:50:37;5.50;;;4.00;;
12445;SDS011;6287;50.984;7.022;2023-07-09T02:53:05;5.18;;;4.20;;
12445;SDS011;6287;50.984;7.022;2023-07-09T02:55:33;7.05;;;4.10;;
12445;SDS011;6287;50.984;7.022;2023-07-09T02:58:01;6.28;;;4.43;;
12445;SDS011;6287;50.984;7.022;2023-07-09T03:00:31;4.70;;;3.45;;
12445;SDS011;6287;50.984;7.022;2023-07-09T03:02:59;6.13;;;3.45;;
12445;SDS011;6287;50.984;7.022;2023-07-09T03:05:25;6.55;;;3.75;;
12445;SDS011;6287;50.984;7.022;2023-07-09T03:07:53;5.22;;;4.10;;
12445;SDS011;6287;50.984;7.022;2023-07-09T03:10:21;5.65;;;3.63;;
12445;SDS011;6287;50.984;7.022;2023-07-09T03:12:49;5.68;;;3.60;;
12445;SDS011;6287;50.984;7.022;2023-07-09T03:15:14;5.43;;;4.28;;
12445;SDS011;6287;50.984;7.022;2023-07-09T03:17:40;6.95;;;4.28;;
12445;SDS011;6287;50.984;7.022;2023-07-09T03:20:05;5.53;;;3.80;;
12445;SDS011;6287;50.984;7.022;2023-07-09T03:22:32;4.45;;;3.60;;
12445;SDS011;6287;50.984;7.022;2023-07-09T03:24:58;8.65;;;4.43;;
12445;SDS011;6287;50.984;7.022;2023-07-09T03:27:24;4.82;;;3.67;;
12445;SDS011;6287;50.984;7.022;2023-07-09T03:29:49;4.88;;;3.45;;
12445;SDS011;6287;50.984;7.022;2023-07-09T03:32:15;6.43;;;4.30;;
12445;SDS011;6287;50.984;7.022;2023-07-09T03:34:43;6.15;;;3.50;;
12445;SDS011;6287;50.984;7.022;2023-07-09T03:37:08;5.32;;;3.78;;
12445;SDS011;6287;50.984;7.022;2023-07-09T03:39:34;6.25;;;4.00;;
12445;SDS011;6287;50.984;7.022;2023-07-09T03:41:59;4.88;;;3.72;;
12445;SDS011;6287;50.984;7.022;2023-07-09T03:44:28;6.38;;;4.03;;
12445;SDS011;6287;50.984;7.022;2023-07-09T03:46:55;6.05;;;4.20;;
12445;SDS011;6287;50.984;7.022;2023-07-09T03:49:26;6.03;;;3.78;;
12445;SDS011;6287;50.984;7.022;2023-07-09T03:51:56;5.07;;;4.20;;
12445;SDS011;6287;50.984;7.022;2023-07-09T03:54:22;5.20;;;3.60;;
12445;SDS011;6287;50.984;7.022;2023-07-09T03:56:47;6.25;;;3.83;;
12445;SDS011;6287;50.984;7.022;2023-07-09T03:59:15;5.30;;;3.75;;
12445;SDS011;6287;50.984;7.022;2023-07-09T04:01:40;5.00;;;3.55;;
12445;SDS011;6287;50.984;7.022;2023-07-09T04:04:11;5.05;;;3.90;;
12445;SDS011;6287;50.984;7.022;2023-07-09T04:06:37;4.10;;;3.67;;
12445;SDS011;6287;50.984;7.022;2023-07-09T04:09:04;5.57;;;3.80;;
12445;SDS011;6287;50.984;7.022;2023-07-09T04:11:30;6.10;;;5.10;;
12445;SDS011;6287;50.984;7.022;2023-07-09T04:13:57;5.28;;;4.18;;
12445;SDS011;6287;50.984;7.022;2023-07-09T04:16:23;7.40;;;4.03;;
12445;SDS011;6287;50.984;7.022;2023-07-09T04:18:48;5.13;;;3.53;;
12445;SDS011;6287;50.984;7.022;2023-07-09T04:21:14;4.53;;;3.65;;
12445;SDS011;6287;50.984;7.022;2023-07-09T04:23:40;5.63;;;3.83;;
12445;SDS011;6287;50.984;7.022;2023-07-09T04:26:07;5.50;;;3.53;;
12445;SDS011;6287;50.984;7.022;2023-07-09T04:28:37;5.20;;;3.55;;
12445;SDS011;6287;50.984;7.022;2023-07-09T04:31:05;7.43;;;3.30;;
12445;SDS011;6287;50.984;7.022;2023-07-09T04:33:31;5.85;;;3.97;;
12445;SDS011;6287;50.984;7.022;2023-07-09T04:35:56;4.78;;;3.65;;
12445;SDS011;6287;50.984;7.022;2023-07-09T04:38:25;6.45;;;3.88;;
12445;SDS011;6287;50.984;7.022;2023-07-09T04:40:53;6.35;;;3.58;;
12445;SDS011;6287;50.984;7.022;2023-07-09T04:43:21;4.78;;;3.50;;
12445;SDS011;6287;50.984;7.022;2023-07-09T04:45:46;6.38;;;3.85;;
12445;SDS011;6287;50.984;7.022;2023-07-09T04:48:12;6.45;;;3.78;;
12445;SDS011;6287;50.984;7.022;2023-07-09T04:50:38;5.40;;;3.65;;
12445;SDS011;6287;50.984;7.022;2023-07-09T04:53:05;4.82;;;4.03;;
12445;SDS011;6287;50.984;7.022;2023-07-09T04:55:31;5.30;;;3.70;;
12445;SDS011;6287;50.984;7.022;2023-07-09T04:57:59;4.97;;;3.50;;
12445;SDS011;6287;50.984;7.022;2023-07-09T05:00:29;5.60;;;3.90;;
12445;SDS011;6287;50.984;7.022;2023-07-09T05:02:57;7.45;;;3.85;;
12445;SDS011;6287;50.984;7.022;2023-07-09T05:05:22;4.38;;;3.25;;
12445;SDS011;6287;50.984;7.022;2023-07-09T05:07:48;5.28;;;3.75;;
12445;SDS011;6287;50.984;7.022;2023-07-09T05:10:17;6.03;;;3.67;;
12445;SDS011;6287;50.984;7.022;2023-07-09T05:12:52;5.15;;;3.47;;
12445;SDS011;6287;50.984;7.022;2023-07-09T05:15:20;4.07;;;3.00;;
12445;SDS011;6287;50.984;7.022;2023-07-09T05:17:47;5.50;;;3.58;;
12445;SDS011;6287;50.984;7.022;2023-07-09T05:20:15;4.45;;;3.50;;
12445;SDS011;6287;50.984;7.022;2023-07-09T05:22:41;4.80;;;3.50;;
12445;SDS011;6287;50.984;7.022;2023-07-09T05:25:06;4.28;;;3.28;;
12445;SDS011;6287;50.984;7.022;2023-07-09T05:27:32;3.60;;;3.10;;
12445;SDS011;6287;50.984;7.022;2023-07-09T05:30:03;4.28;;;3.42;;
12445;SDS011;6287;50.984;7.022;2023-07-09T05:32:29;5.18;;;3.42;;
12445;SDS011;6287;50.984;7.022;2023-07-09T05:34:57;6.03;;;3.50;;
12445;SDS011;6287;50.984;7.022;2023-07-09T05:37:25;4.40;;;3.05;;
12445;SDS011;6287;50.984;7.022;2023-07-09T05:39:53;4.70;;;3.40;;
12445;SDS011;6287;50.984;7.022;2023-07-09T05:42:21;3.67;;;3.17;;
12445;SDS011;6287;50.984;7.022;2023-07-09T05:44:46;6.88;;;3.63;;
12445;SDS011;6287;50.984;7.022;2023-07-09T05:47:15;4.20;;;3.03;;
12445;SDS011;6287;50.984;7.022;2023-07-09T05:49:41;6.10;;;3.47;;
12445;SDS011;6287;50.984;7.022;2023-07-09T05:52:07;4.05;;;3.30;;
12445;SDS011;6287;50.984;7.022;2023-07-09T05:54:35;5.50;;;3.20;;
12445;SDS011;6287;50.984;7.022;2023-07-09T05:57:05;5.18;;;3.80;;
12445;SDS011;6287;50.984;7.022;2023-07-09T05:59:36;4.95;;;3.60;;
12445;SDS011;6287;50.984;7.022;2023-07-09T06:02:02;5.50;;;3.47;;
12445;SDS011;6287;50.984;7.022;2023-07-09T06:04:28;5.53;;;3.78;;
12445;SDS011;6287;50.984;7.022;2023-07-09T06:06:56;5.10;;;3.60;;
12445;SDS011;6287;50.984;7.022;2023-07-09T06:09:26;4.55;;;3.30;;
12445;SDS011;6287;50.984;7.022;2023-07-09T06:11:52;4.53;;;3.38;;
12445;SDS011;6287;50.984;7.022;2023-07-09T06:14:18;5.10;;;3.42;;
12445;SDS011;6287;50.984;7.022;2023-07-09T06:16:43;3.95;;;3.05;;
12445;SDS011;6287;50.984;7.022;2023-07-09T06:19:11;3.92;;;3.33;;
12445;SDS011;6287;50.984;7.022;2023-07-09T06:21:39;4.20;;;3.45;;
12445;SDS011;6287;50.984;7.022;2023-07-09T06:24:08;3.35;;;3.00;;
12445;SDS011;6287;50.984;7.022;2023-07-09T06:26:34;5.20;;;3.40;;
12445;SDS011;6287;50.984;7.022;2023-07-09T06:28:59;4.18;;;3.17;;
12445;SDS011;6287;50.984;7.022;2023-07-09T06:31:25;6.22;;;3.50;;
12445;SDS011;6287;50.984;7.022;2023-07-09T06:33:57;4.50;;;3.55;;
12445;SDS011;6287;50.984;7.022;2023-07-09T06:36:25;5.25;;;3.22;;
12445;SDS011;6287;50.984;7.022;2023-07-09T06:38:53;6.00;;;3.10;;
12445;SDS011;6287;50.984;7.022;2023-07-09T06:41:19;5.57;;;3.03;;
12445;SDS011;6287;50.984;7.022;2023-07-09T06:43:48;6.53;;;3.53;;
12445;SDS011;6287;50.984;7.022;2023-07-09T06:46:14;4.00;;;3.30;;
12445;SDS011;6287;50.984;7.022;2023-07-09T06:48:40;5.53;;;3.63;;
12445;SDS011;6287;50.984;7.022;2023-07-09T06:51:08;6.45;;;3.38;;
12445;SDS011;6287;50.984;7.022;2023-07-09T06:53:36;3.83;;;3.03;;
12445;SDS011;6287;50.984;7.022;2023-07-09T06:56:02;3.17;;;2.88;;
12445;SDS011;6287;50.984;7.022;2023-07-09T06:58:33;4.68;;;3.58;;
12445;SDS011;6287;50.984;7.022;2023-07-09T07:01:02;3.65;;;2.90;;
12445;SDS011;6287;50.984;7.022;2023-07-09T07:03:29;3.70;;;3.05;;
12445;SDS011;6287;50.984;7.022;2023-07-09T07:05:55;4.43;;;3.30;;
12445;SDS011;6287;50.984;7.022;2023-07-09T07:08:24;4.57;;;3.22;;
12445;SDS011;6287;50.984;7.022;2023-07-09T07:10:54;4.32;;;3.40;;
12445;SDS011;6287;50.984;7.022;2023-07-09T07:13:34;3.28;;;2.72;;
12445;SDS011;6287;50.984;7.022;2023-07-09T07:16:04;3.75;;;3.28;;
12445;SDS011;6287;50.984;7.022;2023-07-09T07:18:34;3.75;;;2.63;;
12445;SDS011;6287;50.984;7.022;2023-07-09T07:21:02;3.40;;;3.10;;
12445;SDS011;6287;50.984;7.022;2023-07-09T07:23:28;4.95;;;3.20;;
12445;SDS011;6287;50.984;7.022;2023-07-09T07:25:54;4.20;;;2.90;;
12445;SDS011;6287;50.984;7.022;2023-07-09T07:28:20;4.65;;;3.00;;
12445;SDS011;6287;50.984;7.022;2023-07-09T07:30:57;2.95;;;2.72;;
12445;SDS011;6287;50.984;7.022;2023-07-09T07:33:32;3.63;;;2.88;;
12445;SDS011;6287;50.984;7.022;2023-07-09T07:35:57;7.38;;;3.60;;
12445;SDS011;6287;50.984;7.022;2023-07-09T07:38:23;3.60;;;3.25;;
12445;SDS011;6287;50.984;7.022;2023-07-09T07:40:51;3.90;;;2.50;;
12445;SDS011;6287;50.984;7.022;2023-07-09T07:43:19;3.05;;;2.70;;
12445;SDS011;6287;50.984;7.022;2023-07-09T07:45:44;3.67;;;2.83;;
12445;SDS011;6287;50.984;7.022;2023-07-09T07:48:12;3.72;;;3.20;;
12445;SDS011;6287;50.984;7.022;2023-07-09T07:50:41;3.53;;;2.97;;
12445;SDS011;6287;50.984;7.022;2023-07-09T07:53:11;3.15;;;2.85;;
12445;SDS011;6287;50.984;7.022;2023-07-09T07:55:36;6.32;;;2.80;;
12445;SDS011;6287;50.984;7.022;2023-07-09T07:58:02;5.28;;;3.33;;
12445;SDS011;6287;50.984;7.022;2023-07-09T08:00:29;3.75;;;2.92;;
12445;SDS011;6287;50.984;7.022;2023-07-09T08:02:55;3.72;;;2.95;;
12445;SDS011;6287;50.984;7.022;2023-07-09T08:05:23;3.15;;;2.60;;
12445;SDS011;6287;50.984;7.022;2023-07-09T08:07:53;3.58;;;2.80;;
12445;SDS011;6287;50.984;7.022;2023-07-09T08:10:19;4.55;;;2.95;;
12445;SDS011;6287;50.984;7.022;2023-07-09T08:12:45;3.78;;;3.08;;
12445;SDS011;6287;50.984;7.022;2023-07-09T08:15:10;3.60;;;2.75;;
12445;SDS011;6287;50.984;7.022;2023-07-09T08:17:38;3.88;;;3.30;;
12445;SDS011;6287;50.984;7.022;2023-07-09T08:20:06;2.95;;;2.65;;
12445;SDS011;6287;50.984;7.022;2023-07-09T08:22:35;4.10;;;2.92;;
12445;SDS011;6287;50.984;7.022;2023-07-09T08:25:03;3.70;;;2.53;;
12445;SDS011;6287;50.984;7.022;2023-07-09T08:27:29;3.28;;;2.97;;
12445;SDS011;6287;50.984;7.022;2023-07-09T08:29:59;2.60;;;2.40;;
12445;SDS011;6287;50.984;7.022;2023-07-09T08:32:24;2.80;;;2.55;;
12445;SDS011;6287;50.984;7.022;2023-07-09T08:34:50;2.95;;;2.67;;
12445;SDS011;6287;50.984;7.022;2023-07-09T08:37:20;3.65;;;2.42;;
12445;SDS011;6287;50.984;7.022;2023-07-09T08:39:47;2.50;;;2.30;;
12445;SDS011;6287;50.984;7.022;2023-07-09T08:42:17;3.60;;;3.08;;
12445;SDS011;6287;50.984;7.022;2023-07-09T08:45:00;3.45;;;2.97;;
12445;SDS011;6287;50.984;7.022;2023-07-09T08:50:36;4.72;;;2.97;;
12445;SDS011;6287;50.984;7.022;2023-07-09T08:53:08;3.60;;;2.67;;
12445;SDS011;6287;50.984;7.022;2023-07-09T08:55:43;4.07;;;2.97;;
12445;SDS011;6287;50.984;7.022;2023-07-09T08:58:34;2.80;;;2.38;;
12445;SDS011;6287;50.984;7.022;2023-07-09T09:01:01;4.20;;;2.50;;
12445;SDS011;6287;50.984;7.022;2023-07-09T09:06:35;3.55;;;2.72;;
12445;SDS011;6287;50.984;7.022;2023-07-09T09:09:12;2.47;;;2.28;;
12445;SDS011;6287;50.984;7.022;2023-07-09T09:11:59;3.08;;;2.63;;
12445;SDS011;6287;50.984;7.022;2023-07-09T09:17:01;2.97;;;2.78;;
12445;SDS011;6287;50.984;7.022;2023-07-09T09:19:33;3.10;;;2.67;;
12445;SDS011;6287;50.984;7.022;2023-07-09T09:22:10;3.25;;;2.80;;
12445;SDS011;6287;50.984;7.022;2023-07-09T09:24:53;3.85;;;2.53;;
12445;SDS011;6287;50.984;7.022;2023-07-09T09:27:28;3.35;;;2.80;;
12445;SDS011;6287;50.984;7.022;2023-07-09T09:30:01;3.50;;;2.50;;
12445;SDS011;6287;50.984;7.022;2023-07-09T09:32:30;3.05;;;2.70;;
12445;SDS011;6287;50.984;7.022;2023-07-09T09:35:16;3.00;;;2.40;;
12445;SDS011;6287;50.984;7.022;2023-07-09T09:37:50;3.58;;;2.97;;
12445;SDS011;6287;50.984;7.022;2023-07-09T09:40:20;5.13;;;3.20;;
12445;SDS011;6287;50.984;7.022;2023-07-09T09:42:50;4.10;;;2.80;;
12445;SDS011;6287;50.984;7.022;2023-07-09T09:45:19;4.47;;;2.70;;
12445;SDS011;6287;50.984;7.022;2023-07-09T09:47:47;2.60;;;2.40;;
12445;SDS011;6287;50.984;7.022;2023-07-09T09:50:17;3.72;;;3.10;;
12445;SDS011;6287;50.984;7.022;2023-07-09T09:52:48;3.75;;;2.38;;
12445;SDS011;6287;50.984;7.022;2023-07-09T09:55:22;3.53;;;2.65;;
12445;SDS011;6287;50.984;7.022;2023-07-09T09:57:49;4.40;;;2.70;;
12445;SDS011;6287;50.984;7.022;2023-07-09T10:00:22;5.47;;;2.78;;
12445;SDS011;6287;50.984;7.022;2023-07-09T10:02:57;3.20;;;2.90;;
12445;SDS011;6287;50.984;7.022;2023-07-09T10:05:33;4.28;;;2.92;;
12445;SDS011;6287;50.984;7.022;2023-07-09T10:09:05;3.67;;;2.65;;
12445;SDS011;6287;50.984;7.022;2023-07-09T10:13:55;4.78;;;2.55;;
12445;SDS011;6287;50.984;7.022;2023-07-09T10:16:38;4.68;;;2.97;;
12445;SDS011;6287;50.984;7.022;2023-07-09T10:19:14;2.67;;;2.47;;
12445;SDS011;6287;50.984;7.022;2023-07-09T10:21:59;5.53;;;2.42;;
12445;SDS011;6287;50.984;7.022;2023-07-09T10:40:15;2.67;;;2.47;;
12445;SDS011;6287;50.984;7.022;2023-07-09T10:42:48;3.50;;;2.35;;
12445;SDS011;6287;50.984;7.022;2023-07-09T10:45:28;8.02;;;2.42;;
12445;SDS011;6287;50.984;7.022;2023-07-09T10:48:11;4.78;;;2.67;;
12445;SDS011;6287;50.984;7.022;2023-07-09T10:50:42;3.20;;;2.67;;
12445;SDS011;6287;50.984;7.022;2023-07-09T10:56:01;2.88;;;2.60;;
12445;SDS011;6287;50.984;7.022;2023-07-09T10:58:43;3.60;;;2.85;;
12445;SDS011;6287;50.984;7.022;2023-07-09T11:01:19;3.20;;;2.90;;
12445;SDS011;6287;50.984;7.022;2023-07-09T11:03:55;4.05;;;3.00;;
12445;SDS011;6287;50.984;7.022;2023-07-09T11:11:53;3.10;;;2.30;;
12445;SDS011;6287;50.984;7.022;2023-07-09T11:16:56;2.80;;;2.15;;
12445;SDS011;6287;50.984;7.022;2023-07-09T11:19:31;2.67;;;2.47;;
12445;SDS011;6287;50.984;7.022;2023-07-09T11:21:58;2.50;;;2.30;;
12445;SDS011;6287;50.984;7.022;2023-07-09T11:24:48;2.75;;;2.55;;
12445;SDS011;6287;50.984;7.022;2023-07-09T11:27:26;2.63;;;2.42;;
12445;SDS011;6287;50.984;7.022;2023-07-09T11:29:57;2.80;;;2.33;;
12445;SDS011;6287;50.984;7.022;2023-07-09T11:32:23;3.15;;;2.35;;
12445;SDS011;6287;50.984;7.022;2023-07-09T11:34:52;4.57;;;2.72;;
12445;SDS011;6287;50.984;7.022;2023-07-09T11:37:18;3.10;;;2.45;;
12445;SDS011;6287;50.984;7.022;2023-07-09T11:39:50;2.92;;;2.70;;
12445;SDS011;6287;50.984;7.022;2023-07-09T11:45:06;4.93;;;2.72;;
12445;SDS011;6287;50.984;7.022;2023-07-09T11:47:40;3.30;;;2.35;;
12445;SDS011;6287;50.984;7.022;2023-07-09T11:53:28;3.17;;;2.55;;
12445;SDS011;6287;50.984;7.022;2023-07-09T11:58:07;2.92;;;2.60;;
12445;SDS011;6287;50.984;7.022;2023-07-09T12:00:38;2.72;;;2.53;;
12445;SDS011;6287;50.984;7.022;2023-07-09T12:03:06;4.50;;;2.60;;
12445;SDS011;6287;50.984;7.022;2023-07-09T12:05:36;3.47;;;2.50;;
12445;SDS011;6287;50.984;7.022;2023-07-09T12:08:02;2.33;;;2.20;;
12445;SDS011;6287;50.984;7.022;2023-07-09T12:10:34;4.05;;;2.50;;
12445;SDS011;6287;50.984;7.022;2023-07-09T12:13:01;2.70;;;2.40;;
12445;SDS011;6287;50.984;7.022;2023-07-09T12:15:29;2.67;;;2.28;;
12445;SDS011;6287;50.984;7.022;2023-07-09T12:18:00;3.42;;;2.42;;
12445;SDS011;6287;50.984;7.022;2023-07-09T12:20:34;4.97;;;2.80;;
12445;SDS011;6287;50.984;7.022;2023-07-09T12:23:09;4.10;;;2.60;;
12445;SDS011;6287;50.984;7.022;2023-07-09T12:26:11;2.65;;;2.22;;
12445;SDS011;6287;50.984;7.022;2023-07-09T12:28:40;2.80;;;2.20;;
12445;SDS011;6287;50.984;7.022;2023-07-09T12:31:12;3.78;;;2.70;;
12445;SDS011;6287;50.984;7.022;2023-07-09T12:33:48;4.63;;;3.33;;
12445;SDS011;6287;50.984;7.022;2023-07-09T12:36:19;3.60;;;2.78;;
12445;SDS011;6287;50.984;7.022;2023-07-09T12:38:47;2.50;;;2.10;;
12445;SDS011;6287;50.984;7.022;2023-07-09T12:41:25;3.38;;;2.55;;
12445;SDS011;6287;50.984;7.022;2023-07-09T12:43:54;2.97;;;2.47;;
12445;SDS011;6287;50.984;7.022;2023-07-09T12:46:21;2.85;;;2.40;;
12445;SDS011;6287;50.984;7.022;2023-07-09T12:48:48;2.88;;;2.50;;
12445;SDS011;6287;50.984;7.022;2023-07-09T12:51:15;3.47;;;2.47;;
12445;SDS011;6287;50.984;7.022;2023-07-09T12:53:49;4.25;;;2.53;;
12445;SDS011;6287;50.984;7.022;2023-07-09T12:56:38;3.72;;;2.53;;
12445;SDS011;6287;50.984;7.022;2023-07-09T12:59:25;3.58;;;2.40;;
12445;SDS011;6287;50.984;7.022;2023-07-09T13:04:36;3.45;;;2.42;;
12445;SDS011;6287;50.984;7.022;2023-07-09T13:07:18;3.95;;;2.88;;
12445;SDS011;6287;50.984;7.022;2023-07-09T13:09:50;2.50;;;2.30;;
12445;SDS011;6287;50.984;7.022;2023-07-09T13:12:20;3.47;;;2.92;;
12445;SDS011;6287;50.984;7.022;2023-07-09T13:14:55;3.70;;;3.10;;
12445;SDS011;6287;50.984;7.022;2023-07-09T13:17:27;3.15;;;2.47;;
12445;SDS011;6287;50.984;7.022;2023-07-09T13:19:57;4.13;;;2.67;;
12445;SDS011;6287;50.984;7.022;2023-07-09T13:22:23;5.10;;;2.83;;
12445;SDS011;6287;50.984;7.022;2023-07-09T13:24:51;4.88;;;3.13;;
12445;SDS011;6287;50.984;7.022;2023-07-09T13:27:19;2.83;;;2.38;;
12445;SDS011;6287;50.984;7.022;2023-07-09T13:29:45;2.90;;;2.50;;
12445;SDS011;6287;50.984;7.022;2023-07-09T13:32:16;4.78;;;2.65;;
12445;SDS011;6287;50.984;7.022;2023-07-09T13:34:41;4.45;;;2.92;;
12445;SDS011;6287;50.984;7.022;2023-07-09T13:37:14;4.40;;;2.80;;
12445;SDS011;6287;50.984;7.022;2023-07-09T13:39:41;3.53;;;2.92;;
12445;SDS011;6287;50.984;7.022;2023-07-09T13:42:17;3.63;;;3.03;;
12445;SDS011;6287;50.984;7.022;2023-07-09T13:44:45;4.57;;;2.70;;
12445;SDS011;6287;50.984;7.022;2023-07-09T13:47:15;3.42;;;3.05;;
12445;SDS011;6287;50.984;7.022;2023-07-09T13:49:46;3.80;;;2.53;;
12445;SDS011;6287;50.984;7.022;2023-07-09T13:52:23;4.10;;;2.60;;
12445;SDS011;6287;50.984;7.022;2023-07-09T13:54:50;4.97;;;2.95;;
12445;SDS011;6287;50.984;7.022;2023-07-09T13:57:21;3.42;;;3.13;;
12445;SDS011;6287;50.984;7.022;2023-07-09T13:59:52;5.38;;;2.80;;
12445;SDS011;6287;50.984;7.022;2023-07-09T14:04:43;6.90;;;3.72;;
12445;SDS011;6287;50.984;7.022;2023-07-09T14:07:13;5.10;;;3.75;;
12445;SDS011;6287;50.984;7.022;2023-07-09T14:09:56;6.30;;;3.60;;
12445;SDS011;6287;50.984;7.022;2023-07-09T14:12:25;5.30;;;3.22;;
12445;SDS011;6287;50.984;7.022;2023-07-09T14:14:56;4.55;;;3.05;;
12445;SDS011;6287;50.984;7.022;2023-07-09T14:17:23;3.28;;;2.95;;
12445;SDS011;6287;50.984;7.022;2023-07-09T14:19:50;3.85;;;2.85;;
12445;SDS011;6287;50.984;7.022;2023-07-09T14:22:27;3.65;;;2.92;;
12445;SDS011;6287;50.984;7.022;2023-07-09T14:25:00;5.07;;;2.80;;
12445;SDS011;6287;50.984;7.022;2023-07-09T14:27:29;4.63;;;2.90;;
12445;SDS011;6287;50.984;7.022;2023-07-09T14:29:57;4.07;;;2.47;;
12445;SDS011;6287;50.984;7.022;2023-07-09T14:35:17;4.88;;;2.60;;
12445;SDS011;6287;50.984;7.022;2023-07-09T14:37:45;4.85;;;2.90;;
12445;SDS011;6287;50.984;7.022;2023-07-09T14:40:15;5.47;;;3.38;;
12445;SDS011;6287;50.984;7.022;2023-07-09T14:42:42;4.35;;;2.70;;
12445;SDS011;6287;50.984;7.022;2023-07-09T14:45:19;3.60;;;2.40;;
12445;SDS011;6287;50.984;7.022;2023-07-09T14:47:51;3.72;;;2.50;;
12445;SDS011;6287;50.984;7.022;2023-07-09T14:50:24;4.43;;;2.85;;
12445;SDS011;6287;50.984;7.022;2023-07-09T14:52:52;4.20;;;2.83;;
12445;SDS011;6287;50.984;7.022;2023-07-09T14:55:21;5.43;;;2.88;;
12445;SDS011;6287;50.984;7.022;2023-07-09T14:57:49;6.15;;;3.22;;
12445;SDS011;6287;50.984;7.022;2023-07-09T15:00:19;4.25;;;3.22;;
12445;SDS011;6287;50.984;7.022;2023-07-09T15:02:50;4.57;;;3.15;;
12445;SDS011;6287;50.984;7.022;2023-07-09T15:05:18;2.92;;;2.47;;
12445;SDS011;6287;50.984;7.022;2023-07-09T15:07:52;6.53;;;3.08;;
12445;SDS011;6287;50.984;7.022;2023-07-09T15:10:24;3.80;;;2.60;;
12445;SDS011;6287;50.984;7.022;2023-07-09T15:12:52;5.75;;;3.13;;
12445;SDS011;6287;50.984;7.022;2023-07-09T15:15:23;3.53;;;2.90;;
12445;SDS011;6287;50.984;7.022;2023-07-09T15:17:54;3.85;;;2.53;;
12445;SDS011;6287;50.984;7.022;2023-07-09T15:20:22;4.18;;;3.00;;
12445;SDS011;6287;50.984;7.022;2023-07-09T15:22:49;3.83;;;2.58;;
12445;SDS011;6287;50.984;7.022;2023-07-09T15:25:20;4.47;;;3.22;;
12445;SDS011;6287;50.984;7.022;2023-07-09T15:27:47;3.42;;;3.03;;
12445;SDS011;6287;50.984;7.022;2023-07-09T15:30:22;4.95;;;3.00;;
12445;SDS011;6287;50.984;7.022;2023-07-09T15:32:54;3.30;;;2.92;;
12445;SDS011;6287;50.984;7.022;2023-07-09T15:35:22;5.47;;;2.70;;
12445;SDS011;6287;50.984;7.022;2023-07-09T15:37:48;3.63;;;2.75;;
12445;SDS011;6287;50.984;7.022;2023-07-09T15:40:22;3.00;;;2.70;;
12445;SDS011;6287;50.984;7.022;2023-07-09T15:42:49;3.65;;;2.97;;
12445;SDS011;6287;50.984;7.022;2023-07-09T15:45:24;4.45;;;2.75;;
12445;SDS011;6287;50.984;7.022;2023-07-09T15:47:50;3.88;;;3.17;;
12445;SDS011;6287;50.984;7.022;2023-07-09T15:50:20;4.47;;;2.83;;
12445;SDS011;6287;50.984;7.022;2023-07-09T15:52:55;3.00;;;2.67;;
12445;SDS011;6287;50.984;7.022;2023-07-09T15:55:25;4.50;;;3.03;;
12445;SDS011;6287;50.984;7.022;2023-07-09T15:57:54;3.67;;;2.90;;
12445;SDS011;6287;50.984;7.022;2023-07-09T16:00:24;4.75;;;3.35;;
12445;SDS011;6287;50.984;7.022;2023-07-09T16:02:55;3.42;;;3.13;;
12445;SDS011;6287;50.984;7.022;2023-07-09T16:07:52;4.43;;;2.88;;
12445;SDS011;6287;50.984;7.022;2023-07-09T16:10:22;2.90;;;2.60;;
12445;SDS011;6287;50.984;7.022;2023-07-09T16:12:50;6.13;;;3.38;;
12445;SDS011;6287;50.984;7.022;2023-07-09T16:15:17;3.65;;;3.15;;